Armona, California
Current Conditions -  °F | °C
As of 12:53 PM on Saturday 25 Oct 2014 (Local Time) from KHJO Reporting Station
Clear Clear  
Wind Chill: 78°   Ceiling: Unl
Heat Index: 78°   Visibility: 7mi
Dew Point: 46°   Wind: 8mph
Humidity: 32%   Direction: 190°S
Pressure: 30.05"   Gusts: NA
Location:  36.32°N, 119.71°W
Report Text: KHJO 251953Z AUTO 19007KT 7SM CLR 26/08 A3005 RMK AO2 SLP177 T02560078
Loading
Personal Weather Stations






























Interactive Weather Map New forecast layout! Learn more

10-Day Weather Forecast

Advertisements
Track Severe Weather on mobile